createdAt,value
2022-12-20T00:01:59.763Z,45.47
2022-12-20T00:04:26.912Z,41.30
2022-12-20T00:06:54.177Z,47.87
2022-12-20T00:09:21.235Z,31.50
2022-12-20T00:11:48.533Z,45.80
2022-12-20T00:14:15.746Z,37.67
2022-12-20T00:16:42.809Z,40.80
2022-12-20T00:19:11.190Z,90.37
2022-12-20T00:21:38.774Z,43.07
2022-12-20T00:24:06.200Z,30.47
2022-12-20T00:26:34.121Z,47.60
2022-12-20T00:29:01.713Z,44.03
2022-12-20T00:31:29.250Z,28.43
2022-12-20T00:33:57.218Z,37.13
2022-12-20T00:36:25.379Z,43.07
2022-12-20T00:38:53.743Z,59.07
2022-12-20T00:41:30.872Z,77.10
2022-12-20T00:43:58.630Z,47.40
2022-12-20T00:46:26.166Z,41.63
2022-12-20T00:48:53.993Z,47.67
2022-12-20T00:51:22.215Z,79.47
2022-12-20T00:53:49.267Z,30.00
2022-12-20T00:56:16.263Z,36.10
2022-12-20T00:58:44.097Z,80.17
2022-12-20T01:01:31.329Z,54.10
2022-12-20T01:03:58.641Z,31.60
2022-12-20T01:06:25.955Z,21.70
2022-12-20T01:08:54.056Z,33.03
2022-12-20T01:11:22.396Z,23.07
2022-12-20T01:13:50.848Z,26.00
2022-12-20T01:16:18.020Z,22.37
2022-12-20T01:18:45.455Z,20.90
2022-12-20T01:21:14.933Z,19.27
2022-12-20T01:23:41.966Z,21.00
2022-12-20T01:26:11.511Z,20.97
2022-12-20T01:28:40.411Z,19.13
2022-12-20T01:31:08.977Z,19.10
2022-12-20T01:33:36.701Z,23.10
2022-12-20T01:36:08.991Z,21.37
2022-12-20T01:38:36.086Z,20.07
2022-12-20T01:41:04.467Z,22.47
2022-12-20T01:43:46.660Z,21.77
2022-12-20T01:46:13.883Z,20.07
2022-12-20T01:48:42.131Z,19.83
2022-12-20T01:51:09.074Z,20.93
2022-12-20T01:53:36.115Z,27.43
2022-12-20T01:56:04.552Z,22.60
2022-12-20T01:58:31.206Z,22.53
2022-12-20T02:00:58.030Z,21.90
2022-12-20T02:03:25.619Z,19.43
2022-12-20T02:05:52.806Z,19.40
2022-12-20T02:08:20.444Z,20.20
2022-12-20T02:10:47.615Z,17.83
2022-12-20T02:13:20.339Z,20.20
2022-12-20T02:15:54.898Z,21.03
2022-12-20T02:18:48.391Z,20.17
2022-12-20T02:21:28.528Z,22.75
2022-12-20T02:24:10.915Z,19.40
2022-12-20T02:26:52.910Z,20.40
2022-12-20T02:29:28.932Z,22.63
2022-12-20T02:32:03.271Z,19.30
2022-12-20T02:34:32.290Z,20.53
2022-12-20T02:36:59.175Z,19.90
2022-12-20T02:39:27.489Z,20.13
2022-12-20T02:41:57.592Z,19.47
2022-12-20T02:44:45.648Z,21.63
2022-12-20T02:47:18.793Z,19.77
2022-12-20T02:49:47.739Z,21.48
2022-12-20T02:52:15.751Z,20.53
2022-12-20T02:54:42.911Z,21.10
2022-12-20T02:57:09.944Z,20.53
2022-12-20T02:59:40.615Z,21.43
2022-12-20T03:02:08.999Z,20.83
2022-12-20T03:04:38.312Z,20.60
2022-12-20T03:07:07.537Z,20.77
2022-12-20T03:09:35.789Z,20.17
2022-12-20T03:12:03.237Z,20.37
2022-12-20T03:14:30.340Z,19.67
2022-12-20T03:16:57.635Z,20.47
2022-12-20T03:19:25.080Z,21.10
2022-12-20T03:21:52.828Z,20.93
2022-12-20T03:24:20.041Z,21.43
2022-12-20T03:26:47.106Z,20.87
2022-12-20T03:29:14.152Z,22.50
2022-12-20T03:31:41.092Z,21.13
2022-12-20T03:34:08.351Z,21.43
2022-12-20T03:36:35.321Z,21.97
2022-12-20T03:39:02.384Z,20.93
2022-12-20T03:41:29.512Z,22.03
2022-12-20T03:43:56.566Z,19.50
2022-12-20T03:46:23.890Z,20.13
2022-12-20T03:48:51.041Z,18.90
2022-12-20T03:51:18.048Z,21.17
2022-12-20T03:53:44.497Z,43.33
2022-12-20T03:56:11.028Z,259.87
2022-12-20T03:58:37.845Z,257.93
2022-12-20T04:01:17.343Z,319.73
2022-12-20T04:03:44.250Z,95.17
2022-12-20T04:06:11.326Z,400.10
2022-12-20T04:08:38.340Z,499.27
2022-12-20T04:11:17.467Z,158.80
2022-12-20T04:13:45.321Z,82.33
2022-12-20T04:16:13.124Z,40.10
2022-12-20T04:18:40.139Z,34.67
2022-12-20T04:21:07.790Z,42.70
2022-12-20T04:23:35.988Z,45.70
2022-12-20T04:26:03.551Z,38.57
2022-12-20T04:28:30.794Z,40.40
2022-12-20T04:30:58.228Z,22.97
2022-12-20T04:33:26.341Z,25.93
2022-12-20T04:35:53.667Z,35.20
2022-12-20T04:38:21.506Z,36.73
2022-12-20T04:40:55.456Z,29.87
2022-12-20T04:43:23.425Z,28.83
2022-12-20T04:45:52.785Z,28.97
2022-12-20T04:48:55.217Z,29.23
2022-12-20T04:51:07.908Z,25.10
2022-12-20T04:53:50.047Z,25.27
2022-12-20T04:56:35.041Z,23.17
2022-12-20T04:59:02.895Z,35.40
2022-12-20T05:01:29.876Z,25.80
2022-12-20T05:03:57.151Z,25.53
2022-12-20T05:06:24.239Z,25.50
2022-12-20T05:08:51.413Z,27.87
2022-12-20T05:11:18.337Z,26.50
2022-12-20T05:13:51.684Z,25.40
2022-12-20T05:16:18.792Z,27.75
2022-12-20T05:18:49.224Z,21.07
2022-12-20T05:21:35.718Z,19.47
2022-12-20T05:24:21.235Z,31.30
2022-12-20T05:26:48.328Z,32.23
2022-12-20T05:29:17.306Z,27.93
2022-12-20T05:31:44.474Z,22.27
2022-12-20T05:34:11.478Z,21.83
2022-12-20T05:36:38.544Z,20.73
2022-12-20T05:39:06.598Z,22.73
2022-12-20T05:41:33.665Z,42.03
2022-12-20T05:44:00.778Z,90.63
2022-12-20T05:46:27.912Z,57.57
2022-12-20T05:48:55.056Z,26.83
2022-12-20T05:51:22.235Z,29.20
2022-12-20T05:53:49.525Z,28.67
2022-12-20T05:56:16.675Z,26.23
2022-12-20T05:58:43.655Z,58.57
2022-12-20T06:01:10.956Z,97.53
2022-12-20T06:03:38.652Z,131.93
2022-12-20T06:06:10.151Z,100.47
2022-12-20T06:08:39.165Z,161.52
2022-12-20T06:11:07.430Z,210.00
2022-12-20T06:13:34.560Z,186.00
2022-12-20T06:16:01.909Z,49.43
2022-12-20T06:18:29.093Z,121.20
2022-12-20T06:20:56.261Z,174.97
2022-12-20T06:23:23.862Z,115.43
2022-12-20T06:25:51.282Z,173.43
2022-12-20T06:28:22.376Z,101.07
2022-12-20T06:30:56.050Z,89.27
2022-12-20T06:33:23.302Z,122.15
2022-12-20T06:35:51.094Z,113.37
2022-12-20T06:38:18.589Z,74.03
2022-12-20T06:40:45.373Z,63.23
2022-12-20T06:43:12.483Z,60.73
2022-12-20T06:45:41.812Z,96.23
2022-12-20T06:48:09.787Z,61.93
2022-12-20T06:50:36.859Z,180.63
2022-12-20T06:53:03.844Z,147.67
2022-12-20T06:55:52.613Z,85.97
2022-12-20T06:58:20.406Z,69.40
2022-12-20T07:00:47.605Z,90.50
2022-12-20T07:03:14.996Z,102.60
2022-12-20T07:05:42.257Z,71.90
2022-12-20T07:08:09.732Z,78.20
2022-12-20T07:10:37.615Z,35.00
2022-12-20T07:13:04.148Z,75.23
2022-12-20T07:15:31.890Z,110.50
2022-12-20T07:17:59.017Z,78.43
2022-12-20T07:20:25.838Z,321.23
2022-12-20T07:23:23.826Z,467.43
2022-12-20T07:25:53.940Z,111.23
2022-12-20T07:28:21.023Z,48.30
2022-12-20T07:30:48.254Z,44.50
2022-12-20T07:33:15.495Z,34.67
2022-12-20T07:35:44.942Z,175.83
2022-12-20T07:38:14.603Z,64.27
2022-12-20T07:40:42.572Z,38.93
2022-12-20T07:43:11.082Z,28.60
2022-12-20T07:45:38.208Z,23.70
2022-12-20T07:48:12.369Z,24.80
2022-12-20T07:50:42.744Z,25.03
2022-12-20T07:53:10.028Z,23.63
2022-12-20T07:55:38.131Z,22.30
2022-12-20T07:58:07.404Z,24.37
2022-12-20T08:00:34.494Z,27.00
2022-12-20T08:03:01.944Z,24.00
2022-12-20T08:05:29.344Z,38.37
2022-12-20T08:07:59.691Z,61.93
2022-12-20T08:10:28.216Z,39.73
2022-12-20T08:12:55.881Z,52.93
2022-12-20T08:15:23.834Z,58.63
2022-12-20T08:17:51.119Z,43.20
2022-12-20T08:20:18.596Z,61.87
2022-12-20T08:22:45.814Z,115.23
2022-12-20T08:25:12.872Z,64.30
2022-12-20T08:27:40.292Z,44.20
2022-12-20T08:30:08.987Z,36.70
2022-12-20T08:32:36.915Z,34.50
2022-12-20T08:35:05.006Z,29.65
2022-12-20T08:37:31.971Z,26.30
2022-12-20T08:39:59.479Z,24.25
2022-12-20T08:42:26.603Z,27.35
2022-12-20T08:44:53.591Z,21.55
2022-12-20T08:47:20.789Z,21.95
2022-12-20T08:49:48.274Z,20.77
2022-12-20T08:52:15.672Z,25.35
2022-12-20T08:54:43.035Z,20.43
2022-12-20T08:57:10.087Z,23.80
2022-12-20T08:59:36.603Z,20.92
2022-12-20T09:02:04.074Z,25.20
2022-12-20T09:04:31.385Z,21.97
2022-12-20T09:06:58.693Z,23.30
2022-12-20T09:09:26.065Z,20.52
2022-12-20T09:11:52.583Z,19.50
2022-12-20T09:14:20.473Z,21.20
2022-12-20T09:16:47.499Z,21.42
2022-12-20T09:19:14.987Z,22.38
2022-12-20T09:21:42.059Z,20.58
2022-12-20T09:24:10.093Z,19.02
2022-12-20T09:26:37.598Z,20.08
2022-12-20T09:29:04.817Z,19.17
2022-12-20T09:31:31.330Z,21.35
2022-12-20T09:33:59.604Z,21.85
2022-12-20T09:36:28.043Z,19.63
2022-12-20T09:38:55.758Z,20.53
2022-12-20T09:41:39.501Z,21.58
2022-12-20T09:44:12.932Z,22.50
2022-12-20T09:46:40.382Z,20.40
2022-12-20T09:49:07.685Z,22.40
2022-12-20T09:52:13.197Z,22.30
2022-12-20T09:54:45.880Z,20.58
2022-12-20T09:57:23.652Z,22.63
2022-12-20T09:59:50.815Z,20.23
2022-12-20T10:02:57.074Z,21.58
2022-12-20T10:05:13.485Z,21.70
2022-12-20T10:07:47.228Z,20.77
2022-12-20T10:10:20.291Z,22.20
2022-12-20T10:12:47.457Z,25.23
2022-12-20T10:15:27.192Z,22.35
2022-12-20T10:18:12.730Z,19.23
2022-12-20T10:20:39.610Z,24.73
2022-12-20T10:23:11.720Z,26.48
2022-12-20T10:25:38.794Z,23.80
2022-12-20T10:28:11.443Z,21.20
2022-12-20T10:30:38.516Z,21.83
2022-12-20T10:33:05.636Z,21.00
2022-12-20T10:35:40.961Z,21.77
2022-12-20T10:38:14.990Z,21.90
2022-12-20T10:43:43.076Z,24.23
2022-12-20T10:46:11.005Z,19.70
2022-12-20T10:48:39.534Z,21.88
2022-12-20T10:51:15.127Z,23.58
2022-12-20T10:54:00.321Z,22.20
2022-12-20T10:56:35.504Z,23.33
2022-12-20T10:59:03.979Z,19.67
2022-12-20T11:01:37.155Z,22.02
2022-12-20T11:04:08.638Z,23.23
2022-12-20T11:06:38.713Z,21.50
2022-12-20T11:09:18.285Z,21.85
2022-12-20T11:12:04.247Z,25.35
2022-12-20T11:14:38.804Z,22.80
2022-12-20T11:17:25.440Z,22.80
2022-12-20T11:20:03.148Z,21.08
2022-12-20T11:22:30.315Z,22.10
2022-12-20T11:25:17.813Z,24.77
2022-12-20T11:27:51.735Z,23.45
2022-12-20T11:30:25.193Z,25.15
2022-12-20T11:33:04.827Z,24.30
2022-12-20T11:35:51.956Z,23.38
2022-12-20T11:38:31.421Z,23.42
2022-12-20T11:41:16.922Z,26.40
2022-12-20T11:44:22.736Z,27.17
2022-12-20T11:46:57.349Z,29.45
2022-12-20T11:49:27.579Z,33.15
2022-12-20T11:52:15.058Z,25.50
2022-12-20T11:54:44.500Z,26.65
2022-12-20T11:57:15.796Z,25.20
2022-12-20T11:59:43.147Z,23.83
2022-12-20T12:02:15.074Z,24.88
2022-12-20T12:04:54.239Z,24.98
2022-12-20T12:07:26.959Z,25.13
2022-12-20T12:09:53.967Z,22.03
2022-12-20T12:12:23.804Z,25.52
2022-12-20T12:15:03.723Z,24.75
2022-12-20T12:17:30.963Z,23.88
2022-12-20T12:20:01.541Z,22.73
2022-12-20T12:22:32.714Z,23.83
2022-12-20T12:25:02.212Z,24.00
2022-12-20T12:27:29.253Z,24.23
2022-12-20T12:29:58.503Z,25.63
2022-12-20T12:32:44.023Z,26.58
2022-12-20T12:35:17.759Z,25.00
2022-12-20T12:37:50.228Z,26.35
2022-12-20T12:40:17.416Z,27.85
2022-12-20T12:42:57.215Z,24.63
2022-12-20T12:45:29.487Z,23.65
2022-12-20T12:48:02.097Z,24.60
2022-12-20T12:50:42.603Z,28.00
2022-12-20T12:53:18.924Z,25.40
2022-12-20T12:55:47.150Z,24.70
2022-12-20T12:58:23.290Z,26.42
2022-12-20T13:00:50.495Z,23.67
2022-12-20T13:03:35.295Z,26.17
2022-12-20T13:06:21.162Z,26.38
2022-12-20T13:08:50.211Z,25.33
2022-12-20T13:11:30.099Z,23.85
2022-12-20T13:14:13.529Z,24.65
2022-12-20T13:17:10.885Z,24.77
2022-12-20T13:19:29.296Z,25.55
2022-12-20T13:21:57.732Z,29.45
2022-12-20T13:24:41.322Z,31.30
2022-12-20T13:27:21.885Z,29.33
2022-12-20T13:29:53.827Z,29.20
2022-12-20T13:32:39.406Z,27.60
2022-12-20T13:35:26.704Z,54.95
2022-12-20T13:37:55.072Z,28.00
2022-12-20T13:40:26.578Z,26.40
2022-12-20T13:42:55.407Z,24.15
2022-12-20T13:45:22.717Z,24.38
2022-12-20T13:47:53.574Z,29.33
2022-12-20T13:50:26.267Z,25.48
2022-12-20T13:52:55.173Z,26.45
2022-12-20T13:55:33.632Z,26.27
2022-12-20T13:58:05.496Z,29.80
2022-12-20T14:00:33.039Z,31.90
2022-12-20T14:03:01.261Z,23.67
2022-12-20T14:05:37.437Z,23.48
2022-12-20T14:08:04.701Z,24.25
2022-12-20T14:10:32.612Z,28.45
2022-12-20T14:13:00.422Z,39.50
2022-12-20T14:15:31.442Z,32.58
2022-12-20T14:18:05.261Z,30.97
2022-12-20T14:23:05.839Z,24.70
2022-12-20T14:25:36.972Z,39.20
2022-12-20T14:28:04.149Z,42.57
2022-12-20T14:30:51.689Z,150.73
2022-12-20T14:33:36.766Z,42.60
2022-12-20T14:36:11.371Z,27.95
2022-12-20T14:38:39.505Z,37.65
2022-12-20T14:41:26.600Z,72.40
2022-12-20T14:43:58.299Z,80.30
2022-12-20T14:46:25.680Z,37.55
2022-12-20T14:49:11.550Z,42.83
2022-12-20T14:51:39.220Z,46.38
2022-12-20T14:54:06.295Z,27.30
2022-12-20T14:56:33.946Z,42.47
2022-12-20T14:59:16.926Z,44.70
2022-12-20T15:01:44.768Z,27.07
2022-12-20T15:04:44.626Z,27.67
2022-12-20T15:07:29.519Z,30.75
2022-12-20T15:09:56.669Z,44.85
2022-12-20T15:12:23.769Z,30.45
2022-12-20T15:14:51.032Z,32.17
2022-12-20T15:17:18.437Z,42.10
2022-12-20T15:19:45.862Z,55.80
2022-12-20T15:22:17.633Z,49.42
2022-12-20T15:24:45.439Z,41.13
2022-12-20T15:27:16.004Z,44.47
2022-12-20T15:29:43.706Z,34.65
2022-12-20T15:32:19.298Z,59.47
2022-12-20T15:34:46.461Z,64.15
2022-12-20T15:37:18.610Z,95.18
2022-12-20T15:39:46.673Z,37.42
2022-12-20T15:42:18.421Z,32.95
2022-12-20T15:44:46.023Z,30.75
2022-12-20T15:47:14.347Z,46.45
2022-12-20T15:49:47.919Z,35.13
2022-12-20T15:52:19.956Z,41.95
2022-12-20T15:54:47.186Z,36.63
2022-12-20T15:57:15.330Z,32.78
2022-12-20T16:02:31.632Z,32.72
2022-12-20T16:04:59.475Z,39.53
2022-12-20T16:07:27.542Z,47.08
2022-12-20T16:09:54.364Z,46.97
2022-12-20T16:12:29.879Z,74.13
2022-12-20T16:14:57.547Z,39.22
2022-12-20T16:17:24.079Z,39.65
2022-12-20T16:19:51.190Z,39.20
2022-12-20T16:22:24.707Z,46.42
2022-12-20T16:24:52.577Z,46.72
2022-12-20T16:27:20.870Z,39.30
2022-12-20T16:29:48.025Z,40.10
2022-12-20T16:32:16.438Z,59.07
2022-12-20T16:34:43.837Z,39.55
2022-12-20T16:37:12.402Z,43.60
2022-12-20T16:39:39.801Z,86.03
2022-12-20T16:42:22.903Z,52.25
2022-12-20T16:44:53.509Z,32.97
2022-12-20T16:47:20.641Z,47.77
2022-12-20T16:49:52.750Z,59.88
2022-12-20T16:52:20.548Z,42.13
2022-12-20T16:54:47.866Z,30.15
2022-12-20T16:57:14.992Z,28.80
2022-12-20T16:59:42.571Z,43.42
2022-12-20T17:02:21.395Z,43.13
2022-12-20T17:04:48.548Z,48.63
2022-12-20T17:07:16.777Z,83.78
2022-12-20T17:12:24.690Z,71.15
2022-12-20T17:14:52.141Z,51.22
2022-12-20T17:17:22.891Z,31.42
2022-12-20T17:19:50.137Z,51.85
2022-12-20T17:22:24.160Z,43.95
2022-12-20T17:24:51.244Z,35.03
2022-12-20T17:27:18.200Z,34.50
2022-12-20T17:29:45.229Z,52.73
2022-12-20T17:32:18.913Z,47.55
2022-12-20T17:37:12.940Z,61.67
2022-12-20T17:39:39.923Z,58.38
2022-12-20T17:42:06.852Z,51.53
2022-12-20T17:44:33.778Z,50.63
2022-12-20T17:47:00.885Z,48.40
2022-12-20T17:49:28.089Z,40.43
2022-12-20T17:51:56.774Z,62.67
2022-12-20T17:54:25.354Z,48.40
2022-12-20T17:57:14.418Z,55.70
2022-12-20T17:59:41.505Z,45.78
2022-12-20T18:02:21.305Z,46.53
2022-12-20T18:04:48.148Z,33.95
2022-12-20T18:07:15.245Z,43.05
2022-12-20T18:09:42.171Z,49.23
2022-12-20T18:12:10.340Z,59.63
2022-12-20T18:14:37.318Z,83.70
2022-12-20T18:17:04.392Z,54.63
2022-12-20T18:19:32.154Z,37.10
2022-12-20T18:22:00.603Z,85.93
2022-12-20T18:24:27.983Z,50.93
2022-12-20T18:26:55.049Z,60.15
2022-12-20T18:29:22.317Z,86.07
2022-12-20T18:31:50.286Z,56.97
2022-12-20T18:34:17.415Z,71.40
2022-12-20T18:36:44.663Z,125.43
2022-12-20T18:39:12.644Z,51.63
2022-12-20T18:41:39.877Z,36.92
2022-12-20T18:44:07.528Z,58.27
2022-12-20T18:46:34.791Z,45.63
2022-12-20T18:49:02.203Z,39.20
2022-12-20T18:51:30.765Z,35.43
2022-12-20T18:53:58.727Z,33.20
2022-12-20T18:56:30.999Z,32.40
2022-12-20T18:59:04.474Z,32.63
2022-12-20T19:01:35.512Z,32.42
2022-12-20T19:04:03.449Z,32.33
2022-12-20T19:06:32.140Z,34.17
2022-12-20T19:09:02.841Z,51.40
2022-12-20T19:11:29.774Z,35.13
2022-12-20T19:13:56.970Z,73.30
2022-12-20T19:16:24.920Z,37.50
2022-12-20T19:18:52.587Z,88.97
2022-12-20T19:21:24.453Z,77.53
2022-12-20T19:23:52.671Z,86.43
2022-12-20T19:26:20.695Z,316.85
2022-12-20T19:28:47.900Z,225.63
2022-12-20T19:31:21.521Z,97.00
2022-12-20T19:33:49.350Z,92.00
2022-12-20T19:36:22.860Z,72.27
2022-12-20T19:38:53.988Z,152.60
2022-12-20T19:41:23.619Z,122.30
2022-12-20T19:43:51.751Z,63.83
2022-12-20T19:46:26.508Z,231.20
2022-12-20T19:48:55.985Z,54.13
2022-12-20T19:51:23.628Z,169.73
2022-12-20T19:53:52.026Z,109.38
2022-12-20T19:56:20.846Z,109.53
2022-12-20T19:58:48.352Z,377.90
2022-12-20T20:01:16.080Z,191.95
2022-12-20T20:03:43.165Z,151.32
2022-12-20T20:06:10.716Z,73.85
2022-12-20T20:08:37.944Z,44.08
2022-12-20T20:11:09.370Z,35.85
2022-12-20T20:13:37.723Z,52.53
2022-12-20T20:16:05.584Z,39.05
2022-12-20T20:18:38.544Z,37.33
2022-12-20T20:21:06.910Z,34.42
2022-12-20T20:23:33.833Z,73.70
2022-12-20T20:26:05.447Z,466.45
2022-12-20T20:28:34.954Z,510.17
2022-12-20T20:31:05.857Z,145.00
2022-12-20T20:33:32.903Z,210.50
2022-12-20T20:36:02.036Z,49.38
2022-12-20T20:38:29.939Z,34.00
2022-12-20T20:40:57.437Z,33.13
2022-12-20T20:43:25.156Z,32.70
2022-12-20T20:45:53.209Z,86.50
2022-12-20T20:48:19.859Z,222.63
2022-12-20T20:50:46.984Z,240.90
2022-12-20T20:53:14.835Z,159.87
2022-12-20T20:55:41.960Z,107.07
2022-12-20T20:58:08.879Z,87.10
2022-12-20T21:00:36.315Z,400.20
2022-12-20T21:03:03.497Z,146.55
2022-12-20T21:08:18.346Z,72.07
2022-12-20T21:10:45.870Z,105.43
2022-12-20T21:13:13.047Z,92.00
2022-12-20T21:15:41.253Z,51.17
2022-12-20T21:18:10.747Z,54.75
2022-12-20T21:20:38.384Z,174.27
2022-12-20T21:23:06.260Z,89.03
2022-12-20T21:25:33.590Z,95.53
2022-12-20T21:28:00.906Z,93.75
2022-12-20T21:30:28.074Z,70.30
2022-12-20T21:32:55.175Z,52.90
2022-12-20T21:35:22.148Z,41.97
2022-12-20T21:37:49.172Z,41.30
2022-12-20T21:40:16.452Z,54.13
2022-12-20T21:42:43.720Z,49.77
2022-12-20T21:45:12.522Z,44.23
2022-12-20T21:47:39.743Z,42.63
2022-12-20T21:50:07.239Z,51.20
2022-12-20T21:52:34.484Z,45.20
2022-12-20T21:55:02.086Z,104.17
2022-12-20T21:57:29.116Z,50.97
2022-12-20T21:59:57.033Z,42.40
2022-12-20T22:02:24.134Z,52.20
2022-12-20T22:04:51.482Z,55.03
2022-12-20T22:07:18.747Z,42.03
2022-12-20T22:09:45.756Z,34.45
2022-12-20T22:12:13.115Z,37.63
2022-12-20T22:14:40.133Z,48.63
2022-12-20T22:17:07.219Z,62.83
2022-12-20T22:19:34.299Z,48.97
2022-12-20T22:22:01.279Z,151.88
2022-12-20T22:24:28.398Z,69.33
2022-12-20T22:26:55.626Z,51.30
2022-12-20T22:29:22.647Z,34.93
2022-12-20T22:31:51.195Z,47.50
2022-12-20T22:34:18.194Z,40.33
2022-12-20T22:36:45.274Z,39.90
2022-12-20T22:39:12.296Z,43.63
2022-12-20T22:41:39.284Z,40.43
2022-12-20T22:44:06.160Z,34.77
2022-12-20T22:46:33.687Z,38.50
2022-12-20T22:49:01.937Z,34.10
2022-12-20T22:51:31.273Z,35.40
2022-12-20T22:53:59.071Z,38.53
2022-12-20T22:56:26.335Z,37.40
2022-12-20T22:58:53.381Z,41.60
2022-12-20T23:01:21.242Z,40.30
2022-12-20T23:03:48.614Z,37.93
2022-12-20T23:06:16.676Z,40.63
2022-12-20T23:08:43.866Z,34.70
2022-12-20T23:11:33.692Z,72.63
2022-12-20T23:14:19.198Z,38.63
2022-12-20T23:16:46.468Z,41.77
2022-12-20T23:19:13.888Z,41.50
2022-12-20T23:21:59.420Z,38.67
2022-12-20T23:24:26.363Z,40.70
2022-12-20T23:26:53.473Z,32.85
2022-12-20T23:29:20.714Z,35.70
2022-12-20T23:31:47.828Z,37.27
2022-12-20T23:34:14.807Z,62.05
2022-12-20T23:36:42.005Z,46.80
2022-12-20T23:39:09.285Z,50.13
2022-12-20T23:41:36.259Z,36.57
2022-12-20T23:44:04.605Z,35.13
2022-12-20T23:46:32.873Z,39.03
2022-12-20T23:49:00.057Z,57.60
2022-12-20T23:51:27.056Z,55.47
2022-12-20T23:53:54.108Z,37.07
2022-12-20T23:56:21.975Z,43.13
2022-12-20T23:58:53.975Z,39.58
